sensor_id;sensor_type;location;lat;lon;timestamp;temperature;humidity
67586;SHT31;55785;47.946;20.540;2024-02-26T00:01:33;9.40;92.63
67586;SHT31;55785;47.946;20.540;2024-02-26T00:03:58;9.39;92.59
67586;SHT31;55785;47.946;20.540;2024-02-26T00:06:23;9.42;92.62
67586;SHT31;55785;47.946;20.540;2024-02-26T00:08:49;9.37;92.61
67586;SHT31;55785;47.946;20.540;2024-02-26T00:11:14;9.34;92.67
67586;SHT31;55785;47.946;20.540;2024-02-26T00:13:39;9.36;92.56
67586;SHT31;55785;47.946;20.540;2024-02-26T00:16:05;9.34;92.57
67586;SHT31;55785;47.946;20.540;2024-02-26T00:18:30;9.34;92.55
67586;SHT31;55785;47.946;20.540;2024-02-26T00:20:56;9.36;92.66
67586;SHT31;55785;47.946;20.540;2024-02-26T00:23:21;9.39;92.71
67586;SHT31;55785;47.946;20.540;2024-02-26T00:25:47;9.39;92.70
67586;SHT31;55785;47.946;20.540;2024-02-26T00:28:13;9.39;92.69
67586;SHT31;55785;47.946;20.540;2024-02-26T00:30:38;9.46;92.60
67586;SHT31;55785;47.946;20.540;2024-02-26T00:33:03;9.43;92.58
67586;SHT31;55785;47.946;20.540;2024-02-26T00:35:29;9.42;92.58
67586;SHT31;55785;47.946;20.540;2024-02-26T00:37:54;9.44;92.48
67586;SHT31;55785;47.946;20.540;2024-02-26T00:40:19;9.43;92.39
67586;SHT31;55785;47.946;20.540;2024-02-26T00:42:45;9.43;92.36
67586;SHT31;55785;47.946;20.540;2024-02-26T00:45:10;9.40;92.28
67586;SHT31;55785;47.946;20.540;2024-02-26T00:47:35;9.33;92.39
67586;SHT31;55785;47.946;20.540;2024-02-26T00:50:01;9.30;92.45
67586;SHT31;55785;47.946;20.540;2024-02-26T00:52:26;9.26;92.39
67586;SHT31;55785;47.946;20.540;2024-02-26T00:54:51;9.27;92.33
67586;SHT31;55785;47.946;20.540;2024-02-26T00:57:17;9.23;92.30
67586;SHT31;55785;47.946;20.540;2024-02-26T00:59:42;9.19;92.42
67586;SHT31;55785;47.946;20.540;2024-02-26T01:02:07;9.23;92.50
67586;SHT31;55785;47.946;20.540;2024-02-26T01:04:33;9.23;92.48
67586;SHT31;55785;47.946;20.540;2024-02-26T01:06:58;9.25;92.53
67586;SHT31;55785;47.946;20.540;2024-02-26T01:09:23;9.22;92.58
67586;SHT31;55785;47.946;20.540;2024-02-26T01:11:49;9.20;92.54
67586;SHT31;55785;47.946;20.540;2024-02-26T01:14:14;9.26;92.64
67586;SHT31;55785;47.946;20.540;2024-02-26T01:16:39;9.18;92.60
67586;SHT31;55785;47.946;20.540;2024-02-26T01:19:05;9.23;92.60
67586;SHT31;55785;47.946;20.540;2024-02-26T01:21:30;9.23;92.53
67586;SHT31;55785;47.946;20.540;2024-02-26T01:23:55;9.22;92.58
67586;SHT31;55785;47.946;20.540;2024-02-26T01:26:21;9.26;92.61
67586;SHT31;55785;47.946;20.540;2024-02-26T01:28:46;9.23;92.52
67586;SHT31;55785;47.946;20.540;2024-02-26T01:31:11;9.22;92.50
67586;SHT31;55785;47.946;20.540;2024-02-26T01:33:37;9.22;92.51
67586;SHT31;55785;47.946;20.540;2024-02-26T01:36:02;9.27;92.56
67586;SHT31;55785;47.946;20.540;2024-02-26T01:38:27;9.22;92.55
67586;SHT31;55785;47.946;20.540;2024-02-26T01:40:53;9.29;92.51
67586;SHT31;55785;47.946;20.540;2024-02-26T01:43:18;9.25;92.42
67586;SHT31;55785;47.946;20.540;2024-02-26T01:45:43;9.16;92.49
67586;SHT31;55785;47.946;20.540;2024-02-26T01:48:09;9.20;92.53
67586;SHT31;55785;47.946;20.540;2024-02-26T01:50:34;9.20;92.48
67586;SHT31;55785;47.946;20.540;2024-02-26T01:53:00;9.22;92.48
67586;SHT31;55785;47.946;20.540;2024-02-26T01:55:26;9.20;92.43
67586;SHT31;55785;47.946;20.540;2024-02-26T01:57:52;9.22;92.40
67586;SHT31;55785;47.946;20.540;2024-02-26T02:00:18;9.16;92.42
67586;SHT31;55785;47.946;20.540;2024-02-26T02:02:45;9.16;92.45
67586;SHT31;55785;47.946;20.540;2024-02-26T02:05:11;9.12;92.48
67586;SHT31;55785;47.946;20.540;2024-02-26T02:07:37;9.16;92.52
67586;SHT31;55785;47.946;20.540;2024-02-26T02:10:02;9.13;92.53
67586;SHT31;55785;47.946;20.540;2024-02-26T02:12:28;9.13;92.55
67586;SHT31;55785;47.946;20.540;2024-02-26T02:14:54;9.13;92.56
67586;SHT31;55785;47.946;20.540;2024-02-26T02:17:19;9.12;92.51
67586;SHT31;55785;47.946;20.540;2024-02-26T02:19:45;9.12;92.45
67586;SHT31;55785;47.946;20.540;2024-02-26T02:22:10;9.09;92.48
67586;SHT31;55785;47.946;20.540;2024-02-26T02:24:36;8.99;92.49
67586;SHT31;55785;47.946;20.540;2024-02-26T02:27:01;8.96;92.62
67586;SHT31;55785;47.946;20.540;2024-02-26T02:29:26;8.91;92.62
67586;SHT31;55785;47.946;20.540;2024-02-26T02:31:52;8.92;92.71
67586;SHT31;55785;47.946;20.540;2024-02-26T02:34:17;8.99;92.77
67586;SHT31;55785;47.946;20.540;2024-02-26T02:36:52;9.01;92.75
67586;SHT31;55785;47.946;20.540;2024-02-26T02:39:17;9.01;92.78
67586;SHT31;55785;47.946;20.540;2024-02-26T02:41:43;9.02;92.75
67586;SHT31;55785;47.946;20.540;2024-02-26T02:44:08;9.02;92.62
67586;SHT31;55785;47.946;20.540;2024-02-26T02:46:33;8.95;92.72
67586;SHT31;55785;47.946;20.540;2024-02-26T02:48:59;9.01;92.76
67586;SHT31;55785;47.946;20.540;2024-02-26T02:51:24;9.01;92.81
67586;SHT31;55785;47.946;20.540;2024-02-26T02:53:49;9.04;92.75
67586;SHT31;55785;47.946;20.540;2024-02-26T02:56:15;9.01;92.84
67586;SHT31;55785;47.946;20.540;2024-02-26T02:58:40;8.92;92.99
67586;SHT31;55785;47.946;20.540;2024-02-26T03:01:05;8.96;92.98
67586;SHT31;55785;47.946;20.540;2024-02-26T03:03:31;8.92;93.02
67586;SHT31;55785;47.946;20.540;2024-02-26T03:05:56;8.91;93.01
67586;SHT31;55785;47.946;20.540;2024-02-26T03:08:21;8.96;93.11
67586;SHT31;55785;47.946;20.540;2024-02-26T03:10:46;9.01;93.00
67586;SHT31;55785;47.946;20.540;2024-02-26T03:13:12;9.04;92.97
67586;SHT31;55785;47.946;20.540;2024-02-26T03:15:37;9.09;92.95
67586;SHT31;55785;47.946;20.540;2024-02-26T03:18:03;9.11;92.97
67586;SHT31;55785;47.946;20.540;2024-02-26T03:20:28;9.09;92.93
67586;SHT31;55785;47.946;20.540;2024-02-26T03:22:53;9.01;92.93
67586;SHT31;55785;47.946;20.540;2024-02-26T03:25:19;9.02;92.97
67586;SHT31;55785;47.946;20.540;2024-02-26T03:27:44;8.98;93.04
67586;SHT31;55785;47.946;20.540;2024-02-26T03:30:09;8.99;93.12
67586;SHT31;55785;47.946;20.540;2024-02-26T03:32:35;9.05;93.02
67586;SHT31;55785;47.946;20.540;2024-02-26T03:35:00;9.05;92.99
67586;SHT31;55785;47.946;20.540;2024-02-26T03:37:25;9.08;92.94
67586;SHT31;55785;47.946;20.540;2024-02-26T03:39:51;9.04;92.93
67586;SHT31;55785;47.946;20.540;2024-02-26T03:42:17;9.02;92.89
67586;SHT31;55785;47.946;20.540;2024-02-26T03:44:42;9.05;92.85
67586;SHT31;55785;47.946;20.540;2024-02-26T03:47:07;9.04;92.82
67586;SHT31;55785;47.946;20.540;2024-02-26T03:49:33;9.05;92.73
67586;SHT31;55785;47.946;20.540;2024-02-26T03:51:58;9.02;92.63
67586;SHT31;55785;47.946;20.540;2024-02-26T03:54:23;9.02;92.57
67586;SHT31;55785;47.946;20.540;2024-02-26T03:56:49;9.01;92.70
67586;SHT31;55785;47.946;20.540;2024-02-26T03:59:14;8.99;92.75
67586;SHT31;55785;47.946;20.540;2024-02-26T04:01:45;8.95;92.81
67586;SHT31;55785;47.946;20.540;2024-02-26T04:04:10;8.91;92.89
67586;SHT31;55785;47.946;20.540;2024-02-26T04:06:35;8.89;92.95
67586;SHT31;55785;47.946;20.540;2024-02-26T04:09:01;8.86;92.94
67586;SHT31;55785;47.946;20.540;2024-02-26T04:11:26;8.86;93.01
67586;SHT31;55785;47.946;20.540;2024-02-26T04:13:51;8.91;93.08
67586;SHT31;55785;47.946;20.540;2024-02-26T04:16:17;8.93;93.26
67586;SHT31;55785;47.946;20.540;2024-02-26T04:18:42;8.95;93.33
67586;SHT31;55785;47.946;20.540;2024-02-26T04:21:07;8.95;93.45
67586;SHT31;55785;47.946;20.540;2024-02-26T04:23:33;8.99;93.46
67586;SHT31;55785;47.946;20.540;2024-02-26T04:25:58;9.08;93.37
67586;SHT31;55785;47.946;20.540;2024-02-26T04:28:24;9.09;93.34
67586;SHT31;55785;47.946;20.540;2024-02-26T04:30:49;9.11;93.33
67586;SHT31;55785;47.946;20.540;2024-02-26T04:33:14;9.12;93.28
67586;SHT31;55785;47.946;20.540;2024-02-26T04:35:40;9.06;93.29
67586;SHT31;55785;47.946;20.540;2024-02-26T04:38:05;9.06;93.47
67586;SHT31;55785;47.946;20.540;2024-02-26T04:40:30;9.11;93.50
67586;SHT31;55785;47.946;20.540;2024-02-26T04:42:56;9.08;93.52
67586;SHT31;55785;47.946;20.540;2024-02-26T04:45:21;9.06;93.51
67586;SHT31;55785;47.946;20.540;2024-02-26T04:47:46;9.06;93.58
67586;SHT31;55785;47.946;20.540;2024-02-26T04:50:12;9.06;93.58
67586;SHT31;55785;47.946;20.540;2024-02-26T04:52:37;9.04;93.62
67586;SHT31;55785;47.946;20.540;2024-02-26T04:55:02;9.08;93.71
67586;SHT31;55785;47.946;20.540;2024-02-26T04:57:28;9.06;93.73
67586;SHT31;55785;47.946;20.540;2024-02-26T04:59:53;9.06;93.78
67586;SHT31;55785;47.946;20.540;2024-02-26T05:02:18;9.06;93.81
67586;SHT31;55785;47.946;20.540;2024-02-26T05:04:44;9.06;93.83
67586;SHT31;55785;47.946;20.540;2024-02-26T05:07:09;9.05;93.85
67586;SHT31;55785;47.946;20.540;2024-02-26T05:09:35;9.05;93.87
67586;SHT31;55785;47.946;20.540;2024-02-26T05:12:00;9.05;93.96
67586;SHT31;55785;47.946;20.540;2024-02-26T05:14:26;9.04;93.98
67586;SHT31;55785;47.946;20.540;2024-02-26T05:16:51;9.04;94.00
67586;SHT31;55785;47.946;20.540;2024-02-26T05:19:16;9.05;94.03
67586;SHT31;55785;47.946;20.540;2024-02-26T05:21:42;9.09;94.07
67586;SHT31;55785;47.946;20.540;2024-02-26T05:24:07;9.08;94.05
67586;SHT31;55785;47.946;20.540;2024-02-26T05:26:32;9.06;94.10
67586;SHT31;55785;47.946;20.540;2024-02-26T05:28:58;9.05;94.06
67586;SHT31;55785;47.946;20.540;2024-02-26T05:31:23;9.04;94.06
67586;SHT31;55785;47.946;20.540;2024-02-26T05:33:49;9.05;94.12
67586;SHT31;55785;47.946;20.540;2024-02-26T05:36:18;9.04;94.18
67586;SHT31;55785;47.946;20.540;2024-02-26T05:38:44;9.05;94.11
67586;SHT31;55785;47.946;20.540;2024-02-26T05:41:09;9.05;94.13
67586;SHT31;55785;47.946;20.540;2024-02-26T05:43:34;9.05;94.14
67586;SHT31;55785;47.946;20.540;2024-02-26T05:46:00;9.05;94.17
67586;SHT31;55785;47.946;20.540;2024-02-26T05:48:25;9.09;94.18
67586;SHT31;55785;47.946;20.540;2024-02-26T05:50:50;9.05;94.16
67586;SHT31;55785;47.946;20.540;2024-02-26T05:53:17;9.08;94.11
67586;SHT31;55785;47.946;20.540;2024-02-26T05:55:42;9.09;94.16
67586;SHT31;55785;47.946;20.540;2024-02-26T05:58:07;9.08;94.12
67586;SHT31;55785;47.946;20.540;2024-02-26T06:00:33;9.09;94.12
67586;SHT31;55785;47.946;20.540;2024-02-26T06:02:58;9.11;94.10
67586;SHT31;55785;47.946;20.540;2024-02-26T06:05:23;9.12;94.08
67586;SHT31;55785;47.946;20.540;2024-02-26T06:07:49;9.15;94.06
67586;SHT31;55785;47.946;20.540;2024-02-26T06:10:14;9.18;94.00
67586;SHT31;55785;47.946;20.540;2024-02-26T06:12:40;9.18;93.98
67586;SHT31;55785;47.946;20.540;2024-02-26T06:15:06;9.18;93.95
67586;SHT31;55785;47.946;20.540;2024-02-26T06:17:31;9.18;93.91
67586;SHT31;55785;47.946;20.540;2024-02-26T06:19:57;9.22;93.90
67586;SHT31;55785;47.946;20.540;2024-02-26T06:22:22;9.20;93.90
67586;SHT31;55785;47.946;20.540;2024-02-26T06:24:47;9.25;93.80
67586;SHT31;55785;47.946;20.540;2024-02-26T06:27:13;9.27;93.73
67586;SHT31;55785;47.946;20.540;2024-02-26T06:29:38;9.29;93.70
67586;SHT31;55785;47.946;20.540;2024-02-26T06:32:04;9.30;93.57
67586;SHT31;55785;47.946;20.540;2024-02-26T06:34:29;9.33;93.53
67586;SHT31;55785;47.946;20.540;2024-02-26T06:36:54;9.37;93.50
67586;SHT31;55785;47.946;20.540;2024-02-26T06:39:20;9.39;93.40
67586;SHT31;55785;47.946;20.540;2024-02-26T06:41:45;9.40;93.33
67586;SHT31;55785;47.946;20.540;2024-02-26T06:44:10;9.46;93.25
67586;SHT31;55785;47.946;20.540;2024-02-26T06:46:36;9.48;93.20
67586;SHT31;55785;47.946;20.540;2024-02-26T06:49:01;9.50;93.06
67586;SHT31;55785;47.946;20.540;2024-02-26T06:51:26;9.54;93.09
67586;SHT31;55785;47.946;20.540;2024-02-26T06:53:52;9.54;92.91
67586;SHT31;55785;47.946;20.540;2024-02-26T06:56:17;9.53;92.82
67586;SHT31;55785;47.946;20.540;2024-02-26T06:58:42;9.61;92.61
67586;SHT31;55785;47.946;20.540;2024-02-26T07:01:08;9.64;92.49
67586;SHT31;55785;47.946;20.540;2024-02-26T07:03:33;9.65;92.48
67586;SHT31;55785;47.946;20.540;2024-02-26T07:05:59;9.70;92.37
67586;SHT31;55785;47.946;20.540;2024-02-26T07:08:24;9.74;92.09
67586;SHT31;55785;47.946;20.540;2024-02-26T07:10:49;9.77;91.85
67586;SHT31;55785;47.946;20.540;2024-02-26T07:13:15;9.88;91.98
67586;SHT31;55785;47.946;20.540;2024-02-26T07:15:40;9.90;92.08
67586;SHT31;55785;47.946;20.540;2024-02-26T07:18:05;9.88;91.86
67586;SHT31;55785;47.946;20.540;2024-02-26T07:20:31;9.92;91.61
67586;SHT31;55785;47.946;20.540;2024-02-26T07:22:57;9.94;91.36
67586;SHT31;55785;47.946;20.540;2024-02-26T07:25:22;9.97;91.38
67586;SHT31;55785;47.946;20.540;2024-02-26T07:27:48;10.01;91.48
67586;SHT31;55785;47.946;20.540;2024-02-26T07:30:13;10.05;91.36
67586;SHT31;55785;47.946;20.540;2024-02-26T07:32:39;10.12;91.52
67586;SHT31;55785;47.946;20.540;2024-02-26T07:35:04;10.12;91.45
67586;SHT31;55785;47.946;20.540;2024-02-26T07:37:30;10.18;91.25
67586;SHT31;55785;47.946;20.540;2024-02-26T07:39:55;10.21;91.13
67586;SHT31;55785;47.946;20.540;2024-02-26T07:42:20;10.25;91.04
67586;SHT31;55785;47.946;20.540;2024-02-26T07:44:46;10.31;90.92
67586;SHT31;55785;47.946;20.540;2024-02-26T07:47:11;10.42;91.09
67586;SHT31;55785;47.946;20.540;2024-02-26T07:49:36;10.52;90.98
67586;SHT31;55785;47.946;20.540;2024-02-26T07:52:02;10.64;90.98
67586;SHT31;55785;47.946;20.540;2024-02-26T07:54:27;10.71;90.22
67586;SHT31;55785;47.946;20.540;2024-02-26T07:56:52;10.88;90.17
67586;SHT31;55785;47.946;20.540;2024-02-26T07:59:18;10.94;89.61
67586;SHT31;55785;47.946;20.540;2024-02-26T08:01:43;11.10;89.24
67586;SHT31;55785;47.946;20.540;2024-02-26T08:04:09;11.18;88.49
67586;SHT31;55785;47.946;20.540;2024-02-26T08:06:34;11.25;88.58
67586;SHT31;55785;47.946;20.540;2024-02-26T08:08:59;11.28;87.69
67586;SHT31;55785;47.946;20.540;2024-02-26T08:11:25;11.35;87.61
67586;SHT31;55785;47.946;20.540;2024-02-26T08:13:50;11.40;87.88
67586;SHT31;55785;47.946;20.540;2024-02-26T08:16:15;11.42;87.38
67586;SHT31;55785;47.946;20.540;2024-02-26T08:18:41;11.35;86.37
67586;SHT31;55785;47.946;20.540;2024-02-26T08:21:06;11.38;85.61
67586;SHT31;55785;47.946;20.540;2024-02-26T08:23:31;11.36;85.02
67586;SHT31;55785;47.946;20.540;2024-02-26T08:25:57;11.56;86.34
67586;SHT31;55785;47.946;20.540;2024-02-26T08:28:22;11.66;87.53
67586;SHT31;55785;47.946;20.540;2024-02-26T08:30:47;11.67;86.28
67586;SHT31;55785;47.946;20.540;2024-02-26T08:33:13;11.79;86.59
67586;SHT31;55785;47.946;20.540;2024-02-26T08:35:38;11.89;85.69
67586;SHT31;55785;47.946;20.540;2024-02-26T08:38:04;12.07;85.43
67586;SHT31;55785;47.946;20.540;2024-02-26T08:40:29;12.12;82.97
67586;SHT31;55785;47.946;20.540;2024-02-26T08:42:54;11.97;79.29
67586;SHT31;55785;47.946;20.540;2024-02-26T08:45:20;11.97;82.16
67586;SHT31;55785;47.946;20.540;2024-02-26T08:47:45;12.14;83.31
67586;SHT31;55785;47.946;20.540;2024-02-26T08:50:11;12.24;81.28
67586;SHT31;55785;47.946;20.540;2024-02-26T08:52:36;12.44;82.68
67586;SHT31;55785;47.946;20.540;2024-02-26T08:55:01;12.55;81.23
67586;SHT31;55785;47.946;20.540;2024-02-26T08:57:27;12.65;79.34
67586;SHT31;55785;47.946;20.540;2024-02-26T08:59:52;12.65;78.35
67586;SHT31;55785;47.946;20.540;2024-02-26T09:02:17;12.59;78.25
67586;SHT31;55785;47.946;20.540;2024-02-26T09:04:43;12.52;79.52
67586;SHT31;55785;47.946;20.540;2024-02-26T09:07:08;12.54;79.35
67586;SHT31;55785;47.946;20.540;2024-02-26T09:09:33;12.37;77.47
67586;SHT31;55785;47.946;20.540;2024-02-26T09:11:59;12.27;76.78
67586;SHT31;55785;47.946;20.540;2024-02-26T09:14:24;12.23;78.99
67586;SHT31;55785;47.946;20.540;2024-02-26T09:16:49;12.20;78.71
67586;SHT31;55785;47.946;20.540;2024-02-26T09:19:15;12.23;78.02
67586;SHT31;55785;47.946;20.540;2024-02-26T09:21:44;12.28;78.98
67586;SHT31;55785;47.946;20.540;2024-02-26T09:24:11;12.34;80.44
67586;SHT31;55785;47.946;20.540;2024-02-26T09:26:36;12.25;78.24
67586;SHT31;55785;47.946;20.540;2024-02-26T09:29:02;12.23;79.61
67586;SHT31;55785;47.946;20.540;2024-02-26T09:31:27;12.18;79.61
67586;SHT31;55785;47.946;20.540;2024-02-26T09:33:52;12.17;79.64
67586;SHT31;55785;47.946;20.540;2024-02-26T09:36:18;12.20;78.29
67586;SHT31;55785;47.946;20.540;2024-02-26T09:38:43;12.27;78.66
67586;SHT31;55785;47.946;20.540;2024-02-26T09:41:14;12.28;78.64
67586;SHT31;55785;47.946;20.540;2024-02-26T09:43:43;12.23;79.04
67586;SHT31;55785;47.946;20.540;2024-02-26T09:46:09;12.33;79.55
67586;SHT31;55785;47.946;20.540;2024-02-26T09:48:35;12.33;79.51
67586;SHT31;55785;47.946;20.540;2024-02-26T09:51:02;12.42;79.20
67586;SHT31;55785;47.946;20.540;2024-02-26T09:53:29;12.46;81.78
67586;SHT31;55785;47.946;20.540;2024-02-26T09:55:55;12.49;79.17
67586;SHT31;55785;47.946;20.540;2024-02-26T09:58:20;12.52;79.68
67586;SHT31;55785;47.946;20.540;2024-02-26T10:00:51;12.71;77.55
67586;SHT31;55785;47.946;20.540;2024-02-26T10:03:21;12.76;79.77
67586;SHT31;55785;47.946;20.540;2024-02-26T10:05:48;12.71;77.69
67586;SHT31;55785;47.946;20.540;2024-02-26T10:08:14;12.61;78.38
67586;SHT31;55785;47.946;20.540;2024-02-26T10:10:41;12.58;78.72
67586;SHT31;55785;47.946;20.540;2024-02-26T10:13:07;12.61;79.24
67586;SHT31;55785;47.946;20.540;2024-02-26T10:15:33;12.62;77.58
67586;SHT31;55785;47.946;20.540;2024-02-26T10:17:58;12.62;77.46
67586;SHT31;55785;47.946;20.540;2024-02-26T10:20:24;12.61;79.26
67586;SHT31;55785;47.946;20.540;2024-02-26T10:22:49;12.40;77.49
67586;SHT31;55785;47.946;20.540;2024-02-26T10:25:15;12.48;79.44
67586;SHT31;55785;47.946;20.540;2024-02-26T10:27:41;12.56;79.15
67586;SHT31;55785;47.946;20.540;2024-02-26T10:30:17;12.66;78.86
67586;SHT31;55785;47.946;20.540;2024-02-26T10:32:43;12.59;79.01
67586;SHT31;55785;47.946;20.540;2024-02-26T10:35:08;12.48;78.33
67586;SHT31;55785;47.946;20.540;2024-02-26T10:37:34;12.48;78.42
67586;SHT31;55785;47.946;20.540;2024-02-26T10:39:59;12.42;78.78
67586;SHT31;55785;47.946;20.540;2024-02-26T10:42:26;12.56;79.08
67586;SHT31;55785;47.946;20.540;2024-02-26T10:44:51;12.59;77.23
67586;SHT31;55785;47.946;20.540;2024-02-26T10:47:16;12.65;77.76
67586;SHT31;55785;47.946;20.540;2024-02-26T10:49:47;12.72;77.49
67586;SHT31;55785;47.946;20.540;2024-02-26T10:52:13;12.83;79.23
67586;SHT31;55785;47.946;20.540;2024-02-26T10:54:41;12.92;77.95
67586;SHT31;55785;47.946;20.540;2024-02-26T10:57:08;13.07;79.16
67586;SHT31;55785;47.946;20.540;2024-02-26T10:59:35;13.17;75.97
67586;SHT31;55785;47.946;20.540;2024-02-26T11:02:02;13.31;79.61
67586;SHT31;55785;47.946;20.540;2024-02-26T11:04:28;13.40;77.20
67586;SHT31;55785;47.946;20.540;2024-02-26T11:06:55;13.62;76.59
67586;SHT31;55785;47.946;20.540;2024-02-26T11:09:22;13.77;76.14
67586;SHT31;55785;47.946;20.540;2024-02-26T11:11:48;13.70;76.41
67586;SHT31;55785;47.946;20.540;2024-02-26T11:14:14;13.61;75.49
67586;SHT31;55785;47.946;20.540;2024-02-26T11:16:39;13.53;78.40
67586;SHT31;55785;47.946;20.540;2024-02-26T11:19:06;13.70;75.01
67586;SHT31;55785;47.946;20.540;2024-02-26T11:21:31;13.71;76.49
67586;SHT31;55785;47.946;20.540;2024-02-26T11:23:57;13.72;74.98
67586;SHT31;55785;47.946;20.540;2024-02-26T11:26:23;14.06;77.56
67586;SHT31;55785;47.946;20.540;2024-02-26T11:28:51;14.43;75.43
67586;SHT31;55785;47.946;20.540;2024-02-26T11:31:17;14.61;73.20
67586;SHT31;55785;47.946;20.540;2024-02-26T11:33:42;14.60;74.17
67586;SHT31;55785;47.946;20.540;2024-02-26T11:36:11;14.89;72.53
67586;SHT31;55785;47.946;20.540;2024-02-26T11:38:37;15.06;73.25
67586;SHT31;55785;47.946;20.540;2024-02-26T11:41:07;14.81;73.75
67586;SHT31;55785;47.946;20.540;2024-02-26T11:43:58;14.83;72.63
67586;SHT31;55785;47.946;20.540;2024-02-26T11:48:59;15.21;69.95
67586;SHT31;55785;47.946;20.540;2024-02-26T11:51:25;15.45;70.34
67586;SHT31;55785;47.946;20.540;2024-02-26T11:53:51;15.90;69.50
67586;SHT31;55785;47.946;20.540;2024-02-26T11:58:42;16.25;68.15
67586;SHT31;55785;47.946;20.540;2024-02-26T12:01:37;16.36;69.94
67586;SHT31;55785;47.946;20.540;2024-02-26T12:04:21;16.55;69.46
67586;SHT31;55785;47.946;20.540;2024-02-26T12:06:50;16.17;71.03
67586;SHT31;55785;47.946;20.540;2024-02-26T12:11:56;15.45;72.11
67586;SHT31;55785;47.946;20.540;2024-02-26T12:14:25;15.04;71.43
67586;SHT31;55785;47.946;20.540;2024-02-26T12:16:51;15.26;71.51
67586;SHT31;55785;47.946;20.540;2024-02-26T12:19:17;15.34;71.86
67586;SHT31;55785;47.946;20.540;2024-02-26T12:21:43;15.11;73.08
67586;SHT31;55785;47.946;20.540;2024-02-26T12:24:15;15.06;74.89
67586;SHT31;55785;47.946;20.540;2024-02-26T12:26:41;14.87;73.10
67586;SHT31;55785;47.946;20.540;2024-02-26T12:29:07;14.92;73.51
67586;SHT31;55785;47.946;20.540;2024-02-26T12:31:33;15.21;72.49
67586;SHT31;55785;47.946;20.540;2024-02-26T12:34:02;15.32;71.32
67586;SHT31;55785;47.946;20.540;2024-02-26T12:36:28;15.38;74.23
67586;SHT31;55785;47.946;20.540;2024-02-26T12:38:53;15.38;74.28
67586;SHT31;55785;47.946;20.540;2024-02-26T12:41:19;15.28;71.75
67586;SHT31;55785;47.946;20.540;2024-02-26T12:43:44;15.05;74.36
67586;SHT31;55785;47.946;20.540;2024-02-26T12:46:11;14.97;74.73
67586;SHT31;55785;47.946;20.540;2024-02-26T12:48:36;14.85;73.31
67586;SHT31;55785;47.946;20.540;2024-02-26T12:51:02;14.84;73.72
67586;SHT31;55785;47.946;20.540;2024-02-26T12:53:27;14.91;74.51
67586;SHT31;55785;47.946;20.540;2024-02-26T12:55:56;15.28;74.63
67586;SHT31;55785;47.946;20.540;2024-02-26T12:58:21;15.52;73.61
67586;SHT31;55785;47.946;20.540;2024-02-26T13:00:47;15.38;71.19
67586;SHT31;55785;47.946;20.540;2024-02-26T13:03:13;15.42;72.85
67586;SHT31;55785;47.946;20.540;2024-02-26T13:05:39;15.57;71.65
67586;SHT31;55785;47.946;20.540;2024-02-26T13:08:05;15.70;72.27
67586;SHT31;55785;47.946;20.540;2024-02-26T13:10:31;15.83;70.47
67586;SHT31;55785;47.946;20.540;2024-02-26T13:12:57;16.05;70.26
67586;SHT31;55785;47.946;20.540;2024-02-26T13:15:22;16.03;70.10
67586;SHT31;55785;47.946;20.540;2024-02-26T13:17:48;15.98;68.26
67586;SHT31;55785;47.946;20.540;2024-02-26T13:20:28;15.60;69.61
67586;SHT31;55785;47.946;20.540;2024-02-26T13:23:33;15.45;71.50
67586;SHT31;55785;47.946;20.540;2024-02-26T13:25:56;15.46;70.32
67586;SHT31;55785;47.946;20.540;2024-02-26T13:28:21;15.57;70.76
67586;SHT31;55785;47.946;20.540;2024-02-26T13:30:57;15.83;69.99
67586;SHT31;55785;47.946;20.540;2024-02-26T13:33:23;15.94;71.37
67586;SHT31;55785;47.946;20.540;2024-02-26T13:35:49;15.87;68.93
67586;SHT31;55785;47.946;20.540;2024-02-26T13:38:14;16.17;69.17
67586;SHT31;55785;47.946;20.540;2024-02-26T13:40:40;16.31;68.60
67586;SHT31;55785;47.946;20.540;2024-02-26T13:43:05;16.28;70.58
67586;SHT31;55785;47.946;20.540;2024-02-26T13:45:34;16.14;70.57
67586;SHT31;55785;47.946;20.540;2024-02-26T13:48:02;15.91;69.21
67586;SHT31;55785;47.946;20.540;2024-02-26T13:50:28;15.87;72.61
67586;SHT31;55785;47.946;20.540;2024-02-26T13:52:53;15.79;70.45
67586;SHT31;55785;47.946;20.540;2024-02-26T13:55:18;15.89;70.24
67586;SHT31;55785;47.946;20.540;2024-02-26T13:57:44;15.77;71.71
67586;SHT31;55785;47.946;20.540;2024-02-26T14:00:09;15.59;70.41
67586;SHT31;55785;47.946;20.540;2024-02-26T14:02:35;15.49;71.44
67586;SHT31;55785;47.946;20.540;2024-02-26T14:05:00;15.49;70.03
67586;SHT31;55785;47.946;20.540;2024-02-26T14:07:26;15.43;71.40
67586;SHT31;55785;47.946;20.540;2024-02-26T14:09:51;15.45;72.53
67586;SHT31;55785;47.946;20.540;2024-02-26T14:12:16;15.39;71.35
67586;SHT31;55785;47.946;20.540;2024-02-26T14:14:41;15.38;71.44
67586;SHT31;55785;47.946;20.540;2024-02-26T14:17:07;15.35;72.21
67586;SHT31;55785;47.946;20.540;2024-02-26T14:19:32;15.26;71.82
67586;SHT31;55785;47.946;20.540;2024-02-26T14:21:57;15.16;72.50
67586;SHT31;55785;47.946;20.540;2024-02-26T14:24:23;15.12;71.93
67586;SHT31;55785;47.946;20.540;2024-02-26T14:26:48;15.24;72.55
67586;SHT31;55785;47.946;20.540;2024-02-26T14:29:13;15.28;71.60
67586;SHT31;55785;47.946;20.540;2024-02-26T14:31:39;15.24;72.70
67586;SHT31;55785;47.946;20.540;2024-02-26T14:34:04;15.25;72.08
67586;SHT31;55785;47.946;20.540;2024-02-26T14:36:29;15.18;70.75
67586;SHT31;55785;47.946;20.540;2024-02-26T14:38:55;15.09;70.31
67586;SHT31;55785;47.946;20.540;2024-02-26T14:41:20;15.08;72.84
67586;SHT31;55785;47.946;20.540;2024-02-26T14:43:46;15.12;71.29
67586;SHT31;55785;47.946;20.540;2024-02-26T14:46:11;15.28;70.80
67586;SHT31;55785;47.946;20.540;2024-02-26T14:48:36;15.28;71.25
67586;SHT31;55785;47.946;20.540;2024-02-26T14:51:02;15.22;71.36
67586;SHT31;55785;47.946;20.540;2024-02-26T14:53:27;15.45;70.96
67586;SHT31;55785;47.946;20.540;2024-02-26T14:55:52;15.50;70.20
67586;SHT31;55785;47.946;20.540;2024-02-26T14:58:18;15.38;70.00
67586;SHT31;55785;47.946;20.540;2024-02-26T15:00:43;15.19;71.27
67586;SHT31;55785;47.946;20.540;2024-02-26T15:03:08;15.06;72.32
67586;SHT31;55785;47.946;20.540;2024-02-26T15:05:34;15.06;71.12
67586;SHT31;55785;47.946;20.540;2024-02-26T15:08:00;15.09;70.45
67586;SHT31;55785;47.946;20.540;2024-02-26T15:10:25;15.06;71.49
67586;SHT31;55785;47.946;20.540;2024-02-26T15:12:51;14.94;72.81
67586;SHT31;55785;47.946;20.540;2024-02-26T15:15:17;14.85;72.29
67586;SHT31;55785;47.946;20.540;2024-02-26T15:17:42;14.80;73.13
67586;SHT31;55785;47.946;20.540;2024-02-26T15:20:08;14.78;72.82
67586;SHT31;55785;47.946;20.540;2024-02-26T15:22:33;14.76;73.69